createdAt,value
2018-12-20T00:00:34.485Z,31.20
2018-12-20T00:01:34.378Z,33.50
2018-12-20T00:02:34.318Z,31.40
2018-12-20T00:03:34.204Z,32.40
2018-12-20T00:04:34.117Z,32.50
2018-12-20T00:05:34.029Z,32.60
2018-12-20T00:06:33.942Z,32.20
2018-12-20T00:07:33.856Z,33.80
2018-12-20T00:08:33.854Z,34.60
2018-12-20T00:09:33.680Z,33.00
2018-12-20T00:10:33.697Z,32.10
2018-12-20T00:11:33.517Z,35.20
2018-12-20T00:12:33.441Z,32.40
2018-12-20T00:13:33.427Z,31.00
2018-12-20T00:14:33.255Z,33.00
2018-12-20T00:15:33.167Z,32.70
2018-12-20T00:16:33.107Z,32.20
2018-12-20T00:17:33.091Z,33.30
2018-12-20T00:18:33.034Z,33.40
2018-12-20T00:19:32.957Z,33.40
2018-12-20T00:20:32.880Z,33.40
2018-12-20T00:21:32.758Z,35.90
2018-12-20T00:22:32.569Z,32.90
2018-12-20T00:23:32.481Z,37.30
2018-12-20T00:24:32.394Z,34.30
2018-12-20T00:25:32.306Z,33.10
2018-12-20T00:26:32.222Z,36.10
2018-12-20T00:27:32.145Z,36.70
2018-12-20T00:28:32.121Z,35.10
2018-12-20T00:29:31.971Z,35.10
2018-12-20T00:30:31.881Z,36.30
2018-12-20T00:31:31.910Z,35.40
2018-12-20T00:32:31.832Z,34.70
2018-12-20T00:33:31.720Z,34.10
2018-12-20T00:34:31.572Z,35.40
2018-12-20T00:35:31.484Z,34.90
2018-12-20T00:36:31.416Z,35.40
2018-12-20T00:37:31.314Z,34.30
2018-12-20T00:38:31.387Z,34.00
2018-12-20T00:39:31.218Z,36.80
2018-12-20T00:40:31.025Z,35.50
2018-12-20T00:41:30.932Z,34.50
2018-12-20T00:42:30.980Z,33.30
2018-12-20T00:43:30.786Z,36.30
2018-12-20T00:44:37.227Z,36.40
2018-12-20T00:45:30.620Z,36.00
2018-12-20T00:46:30.517Z,36.40
2018-12-20T00:47:30.422Z,35.30
2018-12-20T00:48:30.347Z,32.90
2018-12-20T00:49:30.439Z,35.70
2018-12-20T00:50:30.243Z,35.50
2018-12-20T00:51:30.072Z,35.10
2018-12-20T00:52:30.089Z,34.60
2018-12-20T00:53:30.130Z,33.30
2018-12-20T00:54:29.822Z,36.40
2018-12-20T00:55:29.844Z,35.00
2018-12-20T00:56:29.650Z,34.40
2018-12-20T00:57:29.563Z,34.90
2018-12-20T00:58:29.473Z,34.80
2018-12-20T00:59:29.425Z,35.50
2018-12-20T01:00:29.313Z,36.30
2018-12-20T01:01:29.348Z,35.80
2018-12-20T01:02:29.295Z,35.50
2018-12-20T01:03:29.202Z,34.80
2018-12-20T01:04:28.962Z,36.90
2018-12-20T01:05:28.984Z,35.00
2018-12-20T01:06:28.949Z,34.50
2018-12-20T01:07:28.746Z,36.30
2018-12-20T01:08:28.752Z,36.40
2018-12-20T01:09:28.568Z,36.20
2018-12-20T01:10:28.505Z,34.70
2018-12-20T01:11:28.362Z,36.00
2018-12-20T01:12:28.359Z,38.00
2018-12-20T01:13:28.223Z,35.90
2018-12-20T01:14:28.100Z,34.50
2018-12-20T01:15:28.130Z,36.40
2018-12-20T01:16:27.928Z,38.10
2018-12-20T01:17:28.040Z,36.40
2018-12-20T01:18:27.750Z,35.00
2018-12-20T01:19:27.663Z,35.90
2018-12-20T01:20:27.616Z,37.00
2018-12-20T01:21:27.602Z,36.10
2018-12-20T01:22:27.453Z,35.10
2018-12-20T01:23:27.424Z,36.00
2018-12-20T01:24:27.247Z,34.90
2018-12-20T01:25:27.405Z,34.90
2018-12-20T01:26:27.080Z,35.60
2018-12-20T01:27:27.050Z,37.00
2018-12-20T01:28:26.962Z,37.30
2018-12-20T01:29:26.842Z,36.50
2018-12-20T01:30:26.844Z,36.50
2018-12-20T01:31:26.681Z,36.90
2018-12-20T01:32:26.560Z,37.30
2018-12-20T01:33:26.484Z,37.10
2018-12-20T01:34:26.411Z,33.90
2018-12-20T01:35:26.448Z,34.20
2018-12-20T01:36:26.214Z,37.70
2018-12-20T01:37:26.128Z,37.80
2018-12-20T01:38:26.172Z,37.40
2018-12-20T01:39:26.041Z,35.20
2018-12-20T01:40:25.867Z,35.60
2018-12-20T01:41:25.777Z,37.80
2018-12-20T01:42:25.822Z,36.70
2018-12-20T01:43:25.730Z,34.60
2018-12-20T01:44:25.669Z,38.80
2018-12-20T01:45:25.585Z,39.20
2018-12-20T01:46:25.493Z,36.20
2018-12-20T01:47:25.353Z,37.10
2018-12-20T01:48:25.252Z,35.40
2018-12-20T01:49:25.128Z,37.50
2018-12-20T01:50:25.221Z,36.90
2018-12-20T01:51:24.994Z,36.10
2018-12-20T01:52:24.965Z,39.20
2018-12-20T01:53:24.753Z,40.10
2018-12-20T01:54:24.665Z,37.60
2018-12-20T01:55:24.580Z,37.50
2018-12-20T01:56:24.490Z,37.60
2018-12-20T01:57:24.418Z,40.50
2018-12-20T01:58:24.316Z,36.60
2018-12-20T01:59:24.231Z,39.90
2018-12-20T02:00:24.165Z,38.40
2018-12-20T02:01:24.208Z,40.80
2018-12-20T02:02:24.147Z,38.00
2018-12-20T02:03:24.014Z,37.10
2018-12-20T02:04:23.854Z,40.50
2018-12-20T02:05:23.786Z,39.00
2018-12-20T02:06:23.630Z,38.80
2018-12-20T02:07:23.554Z,36.80
2018-12-20T02:08:23.630Z,37.00
2018-12-20T02:09:23.467Z,40.60
2018-12-20T02:10:23.445Z,38.80
2018-12-20T02:11:23.244Z,39.60
2018-12-20T02:12:23.163Z,37.50
2018-12-20T02:13:23.061Z,39.10
2018-12-20T02:14:22.941Z,36.90
2018-12-20T02:15:22.964Z,38.60
2018-12-20T02:16:22.887Z,40.70
2018-12-20T02:17:22.809Z,39.50
2018-12-20T02:18:22.789Z,38.00
2018-12-20T02:19:22.695Z,37.90
2018-12-20T02:20:22.612Z,37.50
2018-12-20T02:21:22.392Z,39.90
2018-12-20T02:22:22.432Z,39.70
2018-12-20T02:23:22.212Z,39.50
2018-12-20T02:24:22.224Z,40.40
2018-12-20T02:25:22.049Z,41.20
2018-12-20T02:26:22.170Z,40.00
2018-12-20T02:27:21.831Z,41.60
2018-12-20T02:28:21.849Z,42.20
2018-12-20T02:29:21.741Z,40.50
2018-12-20T02:30:21.703Z,37.50
2018-12-20T02:31:21.494Z,41.20
2018-12-20T02:32:21.408Z,43.40
2018-12-20T02:33:21.355Z,42.00
2018-12-20T02:34:21.267Z,41.00
2018-12-20T02:35:21.230Z,40.30
2018-12-20T02:36:21.249Z,41.70
2018-12-20T02:37:21.213Z,39.80
2018-12-20T02:38:20.882Z,41.00
2018-12-20T02:39:20.794Z,41.50
2018-12-20T02:40:20.918Z,40.90
2018-12-20T02:41:20.925Z,42.60
2018-12-20T02:42:20.546Z,42.20
2018-12-20T02:43:20.458Z,40.20
2018-12-20T02:44:20.370Z,42.20
2018-12-20T02:45:20.476Z,39.50
2018-12-20T02:46:20.502Z,41.30
2018-12-20T02:47:20.283Z,43.90
2018-12-20T02:48:20.022Z,42.20
2018-12-20T02:49:19.949Z,43.50
2018-12-20T02:50:19.861Z,42.40
2018-12-20T02:51:19.936Z,45.60
2018-12-20T02:52:19.924Z,43.70
2018-12-20T02:53:19.611Z,42.00
2018-12-20T02:54:19.670Z,40.20
2018-12-20T02:55:19.553Z,44.10
2018-12-20T02:56:19.481Z,41.80
2018-12-20T02:57:19.388Z,41.30
2018-12-20T02:58:19.245Z,42.20
2018-12-20T02:59:19.134Z,42.40
2018-12-20T03:00:19.058Z,42.50
2018-12-20T03:01:18.913Z,42.50
2018-12-20T03:02:19.029Z,43.00
2018-12-20T03:03:18.736Z,42.00
2018-12-20T03:04:18.647Z,42.20
2018-12-20T03:05:18.561Z,41.70
2018-12-20T03:06:18.647Z,43.20
2018-12-20T03:07:18.398Z,42.90
2018-12-20T03:08:18.316Z,42.40
2018-12-20T03:09:18.235Z,42.90
2018-12-20T03:10:18.141Z,43.60
2018-12-20T03:11:18.053Z,42.30
2018-12-20T03:12:17.963Z,41.50
2018-12-20T03:13:17.925Z,42.10
2018-12-20T03:14:17.810Z,42.80
2018-12-20T03:15:20.064Z,42.90
2018-12-20T03:16:17.811Z,44.20
2018-12-20T03:17:17.567Z,41.80
2018-12-20T03:18:17.456Z,43.40
2018-12-20T03:19:17.548Z,42.30
2018-12-20T03:20:17.288Z,44.20
2018-12-20T03:21:17.191Z,42.20
2018-12-20T03:22:17.360Z,42.70
2018-12-20T03:23:17.026Z,41.10
2018-12-20T03:24:17.115Z,40.90
2018-12-20T03:25:16.855Z,43.50
2018-12-20T03:26:17.011Z,44.20
2018-12-20T03:27:16.736Z,43.80
2018-12-20T03:28:16.588Z,41.50
2018-12-20T03:29:16.542Z,44.00
2018-12-20T03:30:16.562Z,41.60
2018-12-20T03:31:16.437Z,44.60
2018-12-20T03:32:16.252Z,42.40
2018-12-20T03:33:16.766Z,42.90
2018-12-20T03:34:16.192Z,44.00
2018-12-20T03:35:16.172Z,44.70
2018-12-20T03:36:15.997Z,43.20
2018-12-20T03:37:15.972Z,43.20
2018-12-20T03:38:15.733Z,44.40
2018-12-20T03:39:15.898Z,44.40
2018-12-20T03:40:15.570Z,40.20
2018-12-20T03:41:15.596Z,44.20
2018-12-20T03:42:15.391Z,42.60
2018-12-20T03:43:15.465Z,45.40
2018-12-20T03:44:15.221Z,43.70
2018-12-20T03:45:15.127Z,43.40
2018-12-20T03:46:15.040Z,43.80
2018-12-20T03:47:15.126Z,43.60
2018-12-20T03:48:14.880Z,40.70
2018-12-20T03:49:14.977Z,41.80
2018-12-20T03:50:14.733Z,44.50
2018-12-20T03:51:14.771Z,41.40
2018-12-20T03:52:14.894Z,45.00
2018-12-20T03:53:14.724Z,45.90
2018-12-20T03:54:14.389Z,43.50
2018-12-20T03:55:14.266Z,44.10
2018-12-20T03:56:14.293Z,44.20
2018-12-20T03:57:14.143Z,42.00
2018-12-20T03:58:14.017Z,42.70
2018-12-20T03:59:13.928Z,45.60
2018-12-20T04:00:14.071Z,43.80
2018-12-20T04:01:13.755Z,41.70
2018-12-20T04:02:13.667Z,43.70
2018-12-20T04:03:13.656Z,44.30
2018-12-20T04:04:13.633Z,43.80
2018-12-20T04:05:13.463Z,44.90
2018-12-20T04:06:13.351Z,45.70
2018-12-20T04:07:13.454Z,44.80
2018-12-20T04:08:13.330Z,45.20
2018-12-20T04:09:13.114Z,45.00
2018-12-20T04:10:12.979Z,44.10
2018-12-20T04:11:12.928Z,45.30
2018-12-20T04:12:12.811Z,44.50
2018-12-20T04:13:12.970Z,48.00
2018-12-20T04:14:12.643Z,45.30
2018-12-20T04:15:12.555Z,46.00
2018-12-20T04:16:12.498Z,42.50
2018-12-20T04:17:12.383Z,42.60
2018-12-20T04:18:12.495Z,43.70
2018-12-20T04:19:12.209Z,45.70
2018-12-20T04:20:12.198Z,42.40
2018-12-20T04:21:12.390Z,41.60
2018-12-20T04:22:11.988Z,45.90
2018-12-20T04:23:11.869Z,47.20
2018-12-20T04:24:11.801Z,43.30
2018-12-20T04:25:11.759Z,43.90
2018-12-20T04:26:11.765Z,45.80
2018-12-20T04:27:11.555Z,44.70
2018-12-20T04:28:11.431Z,45.40
2018-12-20T04:29:11.428Z,42.60
2018-12-20T04:30:11.553Z,44.50
2018-12-20T04:31:11.258Z,45.40
2018-12-20T04:32:11.321Z,45.30
2018-12-20T04:33:11.256Z,45.60
2018-12-20T04:34:10.921Z,43.00
2018-12-20T04:35:10.842Z,44.50
2018-12-20T04:36:10.781Z,41.70
2018-12-20T04:37:10.798Z,44.40
2018-12-20T04:38:10.724Z,42.70
2018-12-20T04:39:10.522Z,44.90
2018-12-20T04:40:10.408Z,43.50
2018-12-20T04:41:10.401Z,44.60
2018-12-20T04:42:10.233Z,43.80
2018-12-20T04:43:10.182Z,44.90
2018-12-20T04:44:10.125Z,43.30
2018-12-20T04:45:10.016Z,46.90
2018-12-20T04:46:10.133Z,47.40
2018-12-20T04:47:09.844Z,45.40
2018-12-20T04:48:09.722Z,44.10
2018-12-20T04:49:09.765Z,44.70
2018-12-20T04:50:09.574Z,43.80
2018-12-20T04:51:09.510Z,43.20
2018-12-20T04:52:09.376Z,43.20
2018-12-20T04:53:09.595Z,44.80
2018-12-20T04:54:09.198Z,44.60
2018-12-20T04:55:09.124Z,44.90
2018-12-20T04:56:09.324Z,43.20
2018-12-20T04:57:08.947Z,46.70
2018-12-20T04:58:08.864Z,46.60
2018-12-20T04:59:08.802Z,46.10
2018-12-20T05:00:08.685Z,47.70
2018-12-20T05:01:08.816Z,44.70
2018-12-20T05:02:08.510Z,43.40
2018-12-20T05:03:08.640Z,45.40
2018-12-20T05:04:08.473Z,44.40
2018-12-20T05:05:08.274Z,43.30
2018-12-20T05:06:08.370Z,42.10
2018-12-20T05:07:08.085Z,42.80
2018-12-20T05:08:08.045Z,43.70
2018-12-20T05:09:08.042Z,42.70
2018-12-20T05:10:08.032Z,45.90
2018-12-20T05:11:07.739Z,45.50
2018-12-20T05:12:07.957Z,45.60
2018-12-20T05:13:07.614Z,44.40
2018-12-20T05:14:07.564Z,45.70
2018-12-20T05:15:07.631Z,43.30
2018-12-20T05:16:07.325Z,41.90
2018-12-20T05:17:07.511Z,45.80
2018-12-20T05:18:07.136Z,44.70
2018-12-20T05:19:07.121Z,44.70
2018-12-20T05:20:07.124Z,43.10
2018-12-20T05:21:06.994Z,45.20
2018-12-20T05:22:06.897Z,48.10
2018-12-20T05:23:06.718Z,42.50
2018-12-20T05:24:06.627Z,42.20
2018-12-20T05:25:06.706Z,44.20
2018-12-20T05:26:06.684Z,41.00
2018-12-20T05:27:06.375Z,45.00
2018-12-20T05:28:06.505Z,44.10
2018-12-20T05:29:06.418Z,42.10
2018-12-20T05:30:06.313Z,41.50
2018-12-20T05:31:06.195Z,43.80
2018-12-20T05:32:06.118Z,45.80
2018-12-20T05:33:05.852Z,44.60
2018-12-20T05:34:05.994Z,45.20
2018-12-20T05:35:05.809Z,41.70
2018-12-20T05:36:05.723Z,44.10
2018-12-20T05:37:05.538Z,41.40
2018-12-20T05:38:05.485Z,41.20
2018-12-20T05:39:05.360Z,44.40
2018-12-20T05:40:05.498Z,44.20
2018-12-20T05:41:05.164Z,43.70
2018-12-20T05:42:05.123Z,44.20
2018-12-20T05:43:05.203Z,42.40
2018-12-20T05:44:05.023Z,41.60
2018-12-20T05:45:04.818Z,45.30
2018-12-20T05:46:04.777Z,43.70
2018-12-20T05:47:04.706Z,44.20
2018-12-20T05:48:04.790Z,44.00
2018-12-20T05:49:04.477Z,45.70
2018-12-20T05:50:04.391Z,44.00
2018-12-20T05:51:04.503Z,41.50
2018-12-20T05:52:04.214Z,41.90
2018-12-20T05:53:04.165Z,43.00
2018-12-20T05:54:04.376Z,44.20
2018-12-20T05:55:03.970Z,45.30
2018-12-20T05:56:03.878Z,46.40
2018-12-20T05:57:03.820Z,44.50
2018-12-20T05:58:03.913Z,43.40
2018-12-20T05:59:03.671Z,44.50
2018-12-20T06:00:03.658Z,44.90
2018-12-20T06:01:03.440Z,40.40
2018-12-20T06:02:03.437Z,43.70
2018-12-20T06:03:03.407Z,41.30
2018-12-20T06:04:03.234Z,42.00
2018-12-20T06:05:03.203Z,44.20
2018-12-20T06:06:03.033Z,39.30
2018-12-20T06:07:02.978Z,43.10
2018-12-20T06:08:02.985Z,45.90
2018-12-20T06:09:02.828Z,42.80
2018-12-20T06:10:02.666Z,43.50
2018-12-20T06:11:02.585Z,44.70
2018-12-20T06:12:02.496Z,41.70
2018-12-20T06:13:02.704Z,42.50
2018-12-20T06:14:02.603Z,44.70
2018-12-20T06:15:02.243Z,42.60
2018-12-20T06:16:02.166Z,43.40
2018-12-20T06:17:02.067Z,42.70
2018-12-20T06:18:02.048Z,43.60
2018-12-20T06:19:01.902Z,41.20
2018-12-20T06:20:01.807Z,41.90
2018-12-20T06:21:01.789Z,44.30
2018-12-20T06:22:01.661Z,44.40
2018-12-20T06:23:01.556Z,42.20
2018-12-20T06:24:01.469Z,42.60
2018-12-20T06:25:01.385Z,43.00
2018-12-20T06:26:01.293Z,41.10
2018-12-20T06:27:01.206Z,41.10
2018-12-20T06:28:01.131Z,45.00
2018-12-20T06:29:01.032Z,45.20
2018-12-20T06:30:00.945Z,44.70
2018-12-20T06:31:00.857Z,46.30
2018-12-20T06:32:00.782Z,43.20
2018-12-20T06:33:00.694Z,42.90
2018-12-20T06:34:00.608Z,41.60
2018-12-20T06:35:00.535Z,42.60
2018-12-20T06:36:00.432Z,43.00
2018-12-20T06:37:00.344Z,43.20
2018-12-20T06:38:00.259Z,44.20
2018-12-20T06:39:00.170Z,44.70
2018-12-20T06:40:00.096Z,44.40
2018-12-20T06:41:00.009Z,44.90
2018-12-20T06:41:59.935Z,42.50
2018-12-20T06:42:59.833Z,42.70
2018-12-20T06:44:06.999Z,45.20
2018-12-20T06:44:59.659Z,43.10
2018-12-20T06:45:59.574Z,43.70
2018-12-20T06:46:59.486Z,42.40
2018-12-20T06:47:59.397Z,42.60
2018-12-20T06:48:59.320Z,44.80
2018-12-20T06:49:59.238Z,44.40
2018-12-20T06:50:59.146Z,44.90
2018-12-20T06:51:59.060Z,45.70
2018-12-20T06:52:58.984Z,44.10
2018-12-20T06:53:58.885Z,41.90
2018-12-20T06:54:58.796Z,44.60
2018-12-20T06:55:58.715Z,44.00
2018-12-20T06:56:58.623Z,41.40
2018-12-20T06:57:58.540Z,44.30
2018-12-20T06:58:58.461Z,42.50
2018-12-20T06:59:58.472Z,47.90
2018-12-20T07:00:58.286Z,45.50
2018-12-20T07:01:58.197Z,45.20
2018-12-20T07:02:58.115Z,44.70
2018-12-20T07:03:58.023Z,44.00
2018-12-20T07:04:57.937Z,44.20
2018-12-20T07:05:57.848Z,45.30
2018-12-20T07:06:57.761Z,46.10
2018-12-20T07:07:57.686Z,46.50
2018-12-20T07:08:57.599Z,43.60
2018-12-20T07:09:57.513Z,45.30
2018-12-20T07:10:57.423Z,43.60
2018-12-20T07:11:57.337Z,46.50
2018-12-20T07:12:57.266Z,46.20
2018-12-20T07:13:57.162Z,46.10
2018-12-20T07:14:57.075Z,44.40
2018-12-20T07:15:56.987Z,46.80
2018-12-20T07:16:56.912Z,45.20
2018-12-20T07:17:56.824Z,43.30
2018-12-20T07:18:56.740Z,47.10
2018-12-20T07:19:56.650Z,45.00
2018-12-20T07:20:56.568Z,45.10
2018-12-20T07:21:56.475Z,46.20
2018-12-20T07:22:56.388Z,46.40
2018-12-20T07:23:56.313Z,47.50
2018-12-20T07:24:56.217Z,47.80
2018-12-20T07:25:56.126Z,45.00
2018-12-20T07:26:56.042Z,47.70
2018-12-20T07:27:55.964Z,51.40
2018-12-20T07:28:55.875Z,54.00
2018-12-20T07:29:55.792Z,45.00
2018-12-20T07:30:55.701Z,44.90
2018-12-20T07:31:55.614Z,46.40
2018-12-20T07:32:55.526Z,45.60
2018-12-20T07:33:55.439Z,44.90
2018-12-20T07:34:55.365Z,44.40
2018-12-20T07:35:55.265Z,44.10
2018-12-20T07:36:55.178Z,44.00
2018-12-20T07:37:55.157Z,45.20
2018-12-20T07:38:55.014Z,45.50
2018-12-20T07:39:54.926Z,43.40
2018-12-20T07:40:54.840Z,44.70
2018-12-20T07:41:54.765Z,45.60
2018-12-20T07:42:54.666Z,45.00
2018-12-20T07:43:54.578Z,46.00
2018-12-20T07:44:54.498Z,44.80
2018-12-20T07:45:54.403Z,42.30
2018-12-20T07:46:54.316Z,41.40
2018-12-20T07:47:54.229Z,42.90
2018-12-20T07:48:54.165Z,42.20
2018-12-20T07:49:54.066Z,43.10
2018-12-20T07:50:53.978Z,43.80
2018-12-20T07:51:53.894Z,45.20
2018-12-20T07:52:53.803Z,44.80
2018-12-20T07:53:53.716Z,44.80
2018-12-20T07:54:53.628Z,41.80
2018-12-20T07:55:53.541Z,45.50
2018-12-20T07:56:53.453Z,43.50
2018-12-20T07:57:53.366Z,43.50
2018-12-20T07:58:53.280Z,42.60
2018-12-20T07:59:53.204Z,43.90
2018-12-20T08:00:53.119Z,41.10
2018-12-20T08:01:53.029Z,41.90
2018-12-20T08:02:52.941Z,44.20
2018-12-20T08:03:52.854Z,43.30
2018-12-20T08:04:52.767Z,42.30
2018-12-20T08:05:52.681Z,43.90
2018-12-20T08:06:52.593Z,42.60
2018-12-20T08:07:52.505Z,42.40
2018-12-20T08:08:52.431Z,43.30
2018-12-20T08:09:52.342Z,41.50
2018-12-20T08:10:52.254Z,39.90
2018-12-20T08:11:52.169Z,42.30
2018-12-20T08:12:52.080Z,40.40
2018-12-20T08:13:51.994Z,44.20
2018-12-20T08:14:51.906Z,40.70
2018-12-20T08:15:51.818Z,44.30
2018-12-20T08:16:51.730Z,39.90
2018-12-20T08:17:51.643Z,44.60
2018-12-20T08:18:51.570Z,38.60
2018-12-20T08:19:51.522Z,42.10
2018-12-20T08:20:51.398Z,42.60
2018-12-20T08:21:51.318Z,43.90
2018-12-20T08:22:51.219Z,40.30
2018-12-20T08:23:51.132Z,42.80
2018-12-20T08:24:51.045Z,43.10
2018-12-20T08:25:50.956Z,41.30
2018-12-20T08:26:50.869Z,43.40
2018-12-20T08:27:50.783Z,40.70
2018-12-20T08:28:50.719Z,42.80
2018-12-20T08:29:50.622Z,42.10
2018-12-20T08:30:50.532Z,41.00
2018-12-20T08:31:50.446Z,40.90
2018-12-20T08:32:50.357Z,43.20
2018-12-20T08:33:50.283Z,39.90
2018-12-20T08:34:50.183Z,42.70
2018-12-20T08:35:50.097Z,43.30
2018-12-20T08:36:50.021Z,39.50
2018-12-20T08:37:49.933Z,38.70
2018-12-20T08:38:49.847Z,43.10
2018-12-20T08:39:49.772Z,40.50
2018-12-20T08:40:49.672Z,38.60
2018-12-20T08:41:49.583Z,42.30
2018-12-20T08:42:49.502Z,40.70
2018-12-20T08:43:49.409Z,44.30
2018-12-20T08:44:49.334Z,42.90
2018-12-20T08:45:49.248Z,42.50
2018-12-20T08:46:54.366Z,39.70
2018-12-20T08:47:49.074Z,41.80
2018-12-20T08:48:48.984Z,40.70
2018-12-20T08:49:48.898Z,38.90
2018-12-20T08:50:48.810Z,43.80
2018-12-20T08:51:49.151Z,43.30
2018-12-20T08:52:48.637Z,38.10
2018-12-20T08:53:48.560Z,42.20
2018-12-20T08:54:48.473Z,40.20
2018-12-20T08:55:48.397Z,41.50
2018-12-20T08:56:48.300Z,41.90
2018-12-20T08:57:48.210Z,40.40
2018-12-20T08:58:48.125Z,44.20
2018-12-20T08:59:48.036Z,43.40
2018-12-20T09:00:47.948Z,42.20
2018-12-20T09:01:47.862Z,44.00
2018-12-20T09:02:47.865Z,40.90
2018-12-20T09:03:47.699Z,45.00
2018-12-20T09:04:47.611Z,41.50
2018-12-20T09:05:47.524Z,40.60
2018-12-20T09:06:47.450Z,40.90
2018-12-20T09:07:47.350Z,42.20
2018-12-20T09:08:47.265Z,41.50
2018-12-20T09:09:47.186Z,37.70
2018-12-20T09:10:47.102Z,42.00
2018-12-20T09:11:47.013Z,39.30
2018-12-20T09:12:46.925Z,40.20
2018-12-20T09:13:46.837Z,42.30
2018-12-20T09:14:46.750Z,40.20
2018-12-20T09:15:46.665Z,39.20
2018-12-20T09:16:46.576Z,41.50
2018-12-20T09:17:46.501Z,40.60
2018-12-20T09:18:46.412Z,41.20
2018-12-20T09:19:46.442Z,40.10
2018-12-20T09:20:46.237Z,39.70
2018-12-20T09:21:46.151Z,38.50
2018-12-20T09:22:46.075Z,39.20
2018-12-20T09:23:45.976Z,40.10
2018-12-20T09:24:45.901Z,39.70
2018-12-20T09:25:45.813Z,37.50
2018-12-20T09:26:45.727Z,40.60
2018-12-20T09:27:45.640Z,38.00
2018-12-20T09:28:45.551Z,40.30
2018-12-20T09:29:45.476Z,42.20
2018-12-20T09:30:45.377Z,40.00
2018-12-20T09:31:45.291Z,40.60
2018-12-20T09:32:45.228Z,39.10
2018-12-20T09:33:45.127Z,41.30
2018-12-20T09:34:45.039Z,40.60
2018-12-20T09:35:44.955Z,41.40
2018-12-20T09:36:44.865Z,40.10
2018-12-20T09:37:44.779Z,42.00
2018-12-20T09:38:44.692Z,42.80
2018-12-20T09:39:44.615Z,41.20
2018-12-20T09:40:44.531Z,41.10
2018-12-20T09:41:44.441Z,39.00
2018-12-20T09:42:44.353Z,38.20
2018-12-20T09:43:44.265Z,41.30
2018-12-20T09:44:44.178Z,38.90
2018-12-20T09:45:44.091Z,39.20
2018-12-20T09:46:44.016Z,44.10
2018-12-20T09:47:43.928Z,40.40
2018-12-20T09:48:43.841Z,39.30
2018-12-20T09:49:43.755Z,37.00
2018-12-20T09:50:43.666Z,39.60
2018-12-20T09:51:43.579Z,40.20
2018-12-20T09:52:43.516Z,38.70
2018-12-20T09:53:43.417Z,39.20
2018-12-20T09:54:43.338Z,40.80
2018-12-20T09:55:43.241Z,38.30
2018-12-20T09:56:43.157Z,38.20
2018-12-20T09:57:43.070Z,38.20
2018-12-20T09:58:42.982Z,36.20
2018-12-20T09:59:42.908Z,39.00
2018-12-20T10:00:42.832Z,38.40
2018-12-20T10:01:42.732Z,38.00
2018-12-20T10:02:42.642Z,37.20
2018-12-20T10:03:42.560Z,38.40
2018-12-20T10:04:42.471Z,37.40
2018-12-20T10:05:42.393Z,38.90
2018-12-20T10:06:42.410Z,38.20
2018-12-20T10:07:42.231Z,40.80
2018-12-20T10:08:42.133Z,37.00
2018-12-20T10:09:42.043Z,37.80
2018-12-20T10:10:41.962Z,41.80
2018-12-20T10:11:41.881Z,39.60
2018-12-20T10:12:41.793Z,38.40
2018-12-20T10:13:41.708Z,41.10
2018-12-20T10:14:41.634Z,39.20
2018-12-20T10:15:41.532Z,38.90
2018-12-20T10:16:41.444Z,36.90
2018-12-20T10:17:41.370Z,40.00
2018-12-20T10:18:41.283Z,38.60
2018-12-20T10:19:41.194Z,38.10
2018-12-20T10:20:41.107Z,37.80
2018-12-20T10:21:41.020Z,36.40
2018-12-20T10:22:40.933Z,38.70
2018-12-20T10:23:40.858Z,36.50
2018-12-20T10:24:40.769Z,35.60
2018-12-20T10:25:40.683Z,38.80
2018-12-20T10:26:40.594Z,35.80
2018-12-20T10:27:40.516Z,37.90
2018-12-20T10:28:40.433Z,38.00
2018-12-20T10:29:40.348Z,37.50
2018-12-20T10:30:40.261Z,36.80
2018-12-20T10:31:40.172Z,36.20
2018-12-20T10:32:40.086Z,36.80
2018-12-20T10:33:39.996Z,36.50
2018-12-20T10:34:39.933Z,36.90
2018-12-20T10:35:39.834Z,36.60
2018-12-20T10:36:39.746Z,35.90
2018-12-20T10:37:39.660Z,34.90
2018-12-20T10:38:41.645Z,35.90
2018-12-20T10:39:39.496Z,35.90
2018-12-20T10:40:39.410Z,34.30
2018-12-20T10:41:39.322Z,36.80
2018-12-20T10:42:39.236Z,35.80
2018-12-20T10:43:39.160Z,35.80
2018-12-20T10:44:39.072Z,34.20
2018-12-20T10:45:38.986Z,37.00
2018-12-20T10:46:38.897Z,34.80
2018-12-20T10:47:38.822Z,34.30
2018-12-20T10:48:38.723Z,35.70
2018-12-20T10:49:38.660Z,34.40
2018-12-20T10:50:38.561Z,34.40
2018-12-20T10:51:38.474Z,33.80
2018-12-20T10:52:38.385Z,34.80
2018-12-20T10:53:38.301Z,34.60
2018-12-20T10:54:38.225Z,38.50
2018-12-20T10:55:38.137Z,36.10
2018-12-20T10:56:38.061Z,35.90
2018-12-20T10:57:37.963Z,39.30
2018-12-20T10:58:37.887Z,37.60
2018-12-20T10:59:37.800Z,36.90
2018-12-20T11:00:37.712Z,35.90
2018-12-20T11:01:37.624Z,34.40
2018-12-20T11:02:37.563Z,36.70
2018-12-20T11:03:37.462Z,37.40
2018-12-20T11:04:37.374Z,35.60
2018-12-20T11:05:37.287Z,35.30
2018-12-20T11:06:37.201Z,35.00
2018-12-20T11:07:37.124Z,35.50
2018-12-20T11:08:37.038Z,34.70
2018-12-20T11:09:36.961Z,34.00
2018-12-20T11:10:36.865Z,34.80
2018-12-20T11:11:36.787Z,34.80
2018-12-20T11:12:36.700Z,35.10
2018-12-20T11:13:36.614Z,34.60
2018-12-20T11:14:36.525Z,36.60
2018-12-20T11:15:37.400Z,38.20
2018-12-20T11:16:36.364Z,34.70
2018-12-20T11:17:37.545Z,35.10
2018-12-20T11:18:36.189Z,33.60
2018-12-20T11:19:36.100Z,34.20
2018-12-20T11:20:36.025Z,33.70
2018-12-20T11:21:35.938Z,34.30
2018-12-20T11:22:35.850Z,34.30
2018-12-20T11:23:35.764Z,34.30
2018-12-20T11:24:35.677Z,36.10
2018-12-20T11:25:35.601Z,34.80
2018-12-20T11:26:35.515Z,35.10
2018-12-20T11:27:35.426Z,33.00
2018-12-20T11:28:35.339Z,34.20
2018-12-20T11:29:35.253Z,34.70
2018-12-20T11:30:35.177Z,35.60
2018-12-20T11:31:35.090Z,37.50
2018-12-20T11:32:35.008Z,32.70
2018-12-20T11:33:34.928Z,34.80
2018-12-20T11:34:34.840Z,33.70
2018-12-20T11:35:34.764Z,32.10
2018-12-20T11:36:34.666Z,33.80
2018-12-20T11:37:34.577Z,35.90
2018-12-20T11:38:34.502Z,34.20
2018-12-20T11:39:34.416Z,35.60
2018-12-20T11:40:34.332Z,31.70
2018-12-20T11:41:34.241Z,34.10
2018-12-20T11:42:34.154Z,32.40
2018-12-20T11:43:34.078Z,31.10
2018-12-20T11:44:33.992Z,33.20
2018-12-20T11:45:33.903Z,32.90
2018-12-20T11:46:33.816Z,33.20
2018-12-20T11:47:33.746Z,32.80
2018-12-20T11:48:33.654Z,34.20
2018-12-20T11:49:33.567Z,31.50
2018-12-20T11:50:33.479Z,32.00
2018-12-20T11:51:33.421Z,35.60
2018-12-20T11:52:33.317Z,32.70
2018-12-20T11:53:33.229Z,31.70
2018-12-20T11:54:33.145Z,31.80
2018-12-20T11:55:33.055Z,32.30
2018-12-20T11:56:32.979Z,31.60
2018-12-20T11:57:32.894Z,29.30
2018-12-20T11:58:32.818Z,29.60
2018-12-20T11:59:32.731Z,31.10
2018-12-20T12:00:32.649Z,30.70
2018-12-20T12:01:32.557Z,31.90
2018-12-20T12:02:32.469Z,30.90
2018-12-20T12:03:32.380Z,29.80
2018-12-20T12:04:32.309Z,29.30
2018-12-20T12:05:32.219Z,29.90
2018-12-20T12:06:32.133Z,32.90
2018-12-20T12:07:32.046Z,29.90
2018-12-20T12:08:31.956Z,33.40
2018-12-20T12:09:31.882Z,30.50
2018-12-20T12:10:31.795Z,31.00
2018-12-20T12:11:31.706Z,30.20
2018-12-20T12:12:31.619Z,30.70
2018-12-20T12:13:31.535Z,31.00
2018-12-20T12:14:31.460Z,29.20
2018-12-20T12:15:31.370Z,31.90
2018-12-20T12:16:31.283Z,32.50
2018-12-20T12:17:31.206Z,26.60
2018-12-20T12:18:31.120Z,30.20
2018-12-20T12:19:31.035Z,30.10
2018-12-20T12:20:30.946Z,29.90
2018-12-20T12:21:30.861Z,29.80
2018-12-20T12:22:30.782Z,30.60
2018-12-20T12:23:30.695Z,31.00
2018-12-20T12:24:30.611Z,29.60
2018-12-20T12:25:30.520Z,28.60
2018-12-20T12:26:30.447Z,31.80
2018-12-20T12:27:30.357Z,29.70
2018-12-20T12:28:30.854Z,28.70
2018-12-20T12:29:30.183Z,29.40
2018-12-20T12:30:30.108Z,30.30
2018-12-20T12:31:30.023Z,27.40
2018-12-20T12:32:29.933Z,29.70
2018-12-20T12:33:29.846Z,28.30
2018-12-20T12:34:29.760Z,30.90
2018-12-20T12:35:29.685Z,28.30
2018-12-20T12:36:29.597Z,31.30
2018-12-20T12:37:29.508Z,29.40
2018-12-20T12:38:29.422Z,27.90
2018-12-20T12:39:29.347Z,30.10
2018-12-20T12:40:29.259Z,28.70
2018-12-20T12:41:29.174Z,28.30
2018-12-20T12:42:29.085Z,28.20
2018-12-20T12:43:29.012Z,27.40
2018-12-20T12:44:28.922Z,29.60
2018-12-20T12:45:28.835Z,27.90
2018-12-20T12:46:28.747Z,28.60
2018-12-20T12:47:28.673Z,28.10
2018-12-20T12:48:28.657Z,30.60
2018-12-20T12:49:28.499Z,27.60
2018-12-20T12:50:28.410Z,29.10
2018-12-20T12:51:28.335Z,28.90